Time;durP1;ratioP1;P1;durP2;ratioP2;P2;SDS_P1;SDS_P2;PMS_P1;PMS_P2;Temp;Humidity;BMP_temperature;BMP_pressure;BME280_temperature;BME280_humidity;BME280_pressure;Samples;Min_cycle;Max_cycle;Signal;HPM_P1;HPM_P2
2022/07/03 00:00:10;;;;;;;2.63;2.43;;;24.00;44.70;;;;;;5040048;27;20498;-92
2022/07/03 00:02:41;;;;;;;2.77;2.57;;;24.00;44.70;;;;;;5029327;27;21033;-93
2022/07/03 00:05:09;;;;;;;2.50;2.37;;;24.00;44.50;;;;;;5014369;27;20467;-92
2022/07/03 00:07:38;;;;;;;3.20;2.77;;;24.00;44.50;;;;;;5047238;27;20443;-92
2022/07/03 00:10:06;;;;;;;2.90;2.70;;;24.00;44.60;;;;;;5054327;27;20438;-92
2022/07/03 00:12:33;;;;;;;3.13;2.93;;;24.00;44.80;;;;;;5035640;27;20441;-93
2022/07/03 00:15:00;;;;;;;2.83;2.63;;;23.90;44.90;;;;;;5041675;27;20474;-92
2022/07/03 00:17:27;;;;;;;4.10;3.20;;;23.90;45.20;;;;;;5014979;28;20700;-92
2022/07/03 00:19:56;;;;;;;2.80;2.60;;;23.90;45.40;;;;;;5041021;27;20542;-92
2022/07/03 00:22:26;;;;;;;2.80;2.60;;;23.80;45.30;;;;;;5023109;28;20451;-92
2022/07/03 00:24:55;;;;;;;3.37;3.17;;;23.80;45.50;;;;;;5026718;28;20504;-93
2022/07/03 00:27:25;;;;;;;3.00;2.70;;;23.80;45.60;;;;;;5044620;28;20442;-93
2022/07/03 00:29:56;;;;;;;2.50;2.37;;;23.70;45.70;;;;;;5023631;28;20492;-93
2022/07/03 00:32:24;;;;;;;2.60;2.40;;;23.70;46.00;;;;;;5017272;28;20491;-92
2022/07/03 00:34:54;;;;;;;2.77;2.57;;;23.50;46.40;;;;;;5055684;27;20469;-92
2022/07/03 00:37:23;;;;;;;2.70;2.50;;;23.50;46.60;;;;;;5029963;27;20451;-92
2022/07/03 00:39:51;;;;;;;3.13;2.83;;;23.50;46.60;;;;;;5022171;28;20466;-92
2022/07/03 00:42:19;;;;;;;3.50;2.70;;;23.40;46.60;;;;;;5019180;28;20466;-93
2022/07/03 00:44:49;;;;;;;3.20;3.00;;;23.50;46.40;;;;;;5042375;27;20469;-92
2022/07/03 00:47:17;;;;;;;3.27;2.97;;;23.50;46.60;;;;;;5023974;28;21015;-92
2022/07/03 00:49:46;;;;;;;2.70;2.50;;;23.40;46.40;;;;;;5015927;28;20541;-92
2022/07/03 00:52:15;;;;;;;2.30;2.10;;;23.40;46.70;;;;;;5026375;28;20445;-92
2022/07/03 00:54:48;;;;;;;2.97;2.47;;;23.30;46.60;;;;;;5058513;27;20470;-92
2022/07/03 00:57:17;;;;;;;3.00;2.80;;;23.30;46.90;;;;;;5028539;27;20442;-92
2022/07/03 00:59:45;;;;;;;9.73;2.90;;;23.20;47.10;;;;;;5013198;28;20512;-92
2022/07/03 01:02:21;;;;;;;3.13;2.80;;;23.20;47.20;;;;;;5015483;28;20446;-92
2022/07/03 01:04:57;;;;;;;2.70;2.50;;;23.10;47.50;;;;;;5034321;28;20814;-92
2022/07/03 01:07:36;;;;;;;2.90;2.70;;;23.10;47.80;;;;;;5052530;27;20478;-93
2022/07/03 01:10:13;;;;;;;2.33;2.23;;;23.00;47.70;;;;;;5022535;28;20438;-92
2022/07/03 01:12:56;;;;;;;3.07;2.77;;;23.00;47.80;;;;;;5052192;27;20526;-92
2022/07/03 01:15:34;;;;;;;3.00;2.80;;;23.00;47.80;;;;;;5007483;28;20496;-92
2022/07/03 01:18:18;;;;;;;4.13;3.03;;;22.90;47.90;;;;;;5008730;28;20499;-91
2022/07/03 01:20:52;;;;;;;2.57;2.37;;;22.90;47.90;;;;;;5026944;28;20468;-93
2022/07/03 01:23:31;;;;;;;2.80;2.40;;;22.80;48.00;;;;;;5036054;27;20829;-92
2022/07/03 01:26:05;;;;;;;2.50;2.30;;;22.70;48.40;;;;;;5006718;28;20466;-92
2022/07/03 01:28:36;;;;;;;2.87;2.67;;;22.70;48.70;;;;;;5002226;27;20455;-93
2022/07/03 01:31:04;;;;;;;2.47;2.30;;;22.60;48.70;;;;;;5107342;27;21014;-94
2022/07/03 01:33:33;;;;;;;2.70;2.50;;;22.60;48.60;;;;;;5012718;27;20439;-92
2022/07/03 01:36:05;;;;;;;3.60;2.80;;;22.60;48.50;;;;;;5020416;28;20470;-93
2022/07/03 01:38:35;;;;;;;2.97;2.70;;;22.60;48.70;;;;;;5028537;27;20459;-93
2022/07/03 01:41:05;;;;;;;2.30;2.10;;;22.50;49.00;;;;;;5022443;27;20470;-89
2022/07/03 01:43:33;;;;;;;3.93;2.40;;;22.50;49.10;;;;;;5027328;27;20511;-93
2022/07/03 01:46:03;;;;;;;2.37;2.17;;;22.50;48.90;;;;;;5022581;28;20469;-92
2022/07/03 01:48:32;;;;;;;2.60;2.40;;;22.50;49.10;;;;;;5031431;27;20945;-93
2022/07/03 01:51:01;;;;;;;2.90;2.67;;;22.50;49.10;;;;;;5020100;28;20447;-94
2022/07/03 01:53:30;;;;;;;5.60;2.97;;;22.40;49.30;;;;;;5023743;27;20449;-93
2022/07/03 01:55:58;;;;;;;2.03;1.93;;;22.40;49.30;;;;;;5024515;28;20462;-92
2022/07/03 01:58:27;;;;;;;2.67;2.47;;;22.40;49.60;;;;;;5039554;27;20467;-91
2022/07/03 02:01:02;;;;;;;2.67;2.47;;;22.40;49.60;;;;;;5039363;27;20459;-93
2022/07/03 02:03:31;;;;;;;2.70;2.50;;;22.30;49.50;;;;;;5032903;27;20481;-93
2022/07/03 02:06:19;;;;;;;2.50;2.30;;;22.30;49.40;;;;;;5045759;27;20470;-91
2022/07/03 02:08:57;;;;;;;2.60;2.40;;;22.30;49.60;;;;;;5019931;28;20464;-93
2022/07/03 02:11:28;;;;;;;3.03;2.50;;;22.30;49.60;;;;;;5024056;27;20449;-93
2022/07/03 02:14:07;;;;;;;2.80;2.60;;;22.20;49.60;;;;;;5028788;28;20472;-92
2022/07/03 02:16:44;;;;;;;2.80;2.57;;;22.20;49.40;;;;;;5024614;28;20464;-93
2022/07/03 02:19:12;;;;;;;2.30;2.10;;;22.20;49.50;;;;;;5035021;27;20446;-92
2022/07/03 02:21:46;;;;;;;5.07;2.53;;;22.20;49.50;;;;;;5002041;28;20477;-92
2022/07/03 02:24:19;;;;;;;2.20;2.03;;;22.20;49.40;;;;;;5022492;28;20537;-92
2022/07/03 02:26:55;;;;;;;2.67;2.43;;;22.20;49.20;;;;;;5034809;28;20499;-93
2022/07/03 02:29:32;;;;;;;2.97;2.77;;;22.10;49.30;;;;;;5028810;27;20484;-94
2022/07/03 02:32:01;;;;;;;2.80;2.60;;;22.10;49.40;;;;;;5048922;27;20438;-92
2022/07/03 02:34:30;;;;;;;2.50;2.30;;;22.10;49.10;;;;;;5036233;27;20473;-92
2022/07/03 02:37:06;;;;;;;2.90;2.70;;;22.00;49.00;;;;;;5026535;28;20530;-93
2022/07/03 02:39:40;;;;;;;7.77;2.67;;;21.80;49.30;;;;;;5041536;27;20534;-93
2022/07/03 02:42:20;;;;;;;2.97;2.77;;;21.80;49.50;;;;;;5008955;28;21089;-93
2022/07/03 02:44:52;;;;;;;2.40;2.30;;;21.80;49.40;;;;;;5042713;27;20469;-92
2022/07/03 02:47:27;;;;;;;2.77;2.57;;;21.80;49.20;;;;;;5006581;27;20455;-92
2022/07/03 02:50:04;;;;;;;3.17;2.87;;;21.80;49.30;;;;;;5027213;28;20446;-92
2022/07/03 02:52:47;;;;;;;3.00;2.80;;;21.70;49.60;;;;;;5010957;28;21324;-92
2022/07/03 02:55:42;;;;;;;2.40;2.20;;;21.70;49.00;;;;;;5028848;27;20462;-92
2022/07/03 02:58:33;;;;;;;2.97;2.77;;;21.70;49.00;;;;;;5052638;27;20454;-92
2022/07/03 03:01:08;;;;;;;3.70;2.83;;;21.70;49.30;;;;;;5027319;28;20482;-92
2022/07/03 03:03:37;;;;;;;2.20;2.10;;;21.70;49.20;;;;;;5040247;27;20473;-92
2022/07/03 03:06:10;;;;;;;4.97;2.97;;;21.60;49.30;;;;;;5022757;28;20470;-91
2022/07/03 03:08:44;;;;;;;3.20;2.30;;;21.60;49.70;;;;;;5038569;28;20887;-93
2022/07/03 03:11:25;;;;;;;2.67;2.47;;;21.60;49.80;;;;;;5058728;27;20439;-92
2022/07/03 03:13:56;;;;;;;2.70;2.50;;;21.50;49.90;;;;;;5044719;27;20454;-92
2022/07/03 03:16:25;;;;;;;2.90;2.50;;;21.50;50.00;;;;;;5039780;28;20463;-92
2022/07/03 03:18:53;;;;;;;4.37;2.10;;;21.50;50.20;;;;;;5011841;28;20434;-91
2022/07/03 03:21:20;;;;;;;2.63;2.43;;;21.50;50.10;;;;;;5037759;28;20562;-91
2022/07/03 03:23:49;;;;;;;3.07;2.83;;;21.50;50.40;;;;;;5059324;28;20442;-91
2022/07/03 03:26:19;;;;;;;3.00;2.70;;;21.50;50.40;;;;;;5002256;28;20491;-91
2022/07/03 03:28:47;;;;;;;2.50;2.30;;;21.40;50.30;;;;;;5046541;28;20511;-92
2022/07/03 03:31:15;;;;;;;6.10;2.70;;;21.40;50.40;;;;;;5033387;27;20490;-92
2022/07/03 03:33:45;;;;;;;5.40;2.80;;;21.30;50.70;;;;;;5058396;27;20532;-92
2022/07/03 03:36:15;;;;;;;2.63;2.43;;;21.20;50.60;;;;;;5000148;28;20624;-92
2022/07/03 03:38:43;;;;;;;2.50;2.30;;;21.20;50.80;;;;;;5010584;28;20443;-92
2022/07/03 03:41:10;;;;;;;2.73;2.53;;;21.20;50.80;;;;;;5028680;27;20474;-92
2022/07/03 03:43:38;;;;;;;2.80;2.37;;;21.20;50.60;;;;;;5021222;28;20474;-93
2022/07/03 03:46:05;;;;;;;4.30;3.10;;;21.20;50.80;;;;;;5051740;27;20491;-92
2022/07/03 03:48:34;;;;;;;2.40;2.30;;;21.20;51.00;;;;;;5036048;28;20446;-92
2022/07/03 03:51:07;;;;;;;2.53;2.33;;;21.30;50.90;;;;;;5044080;28;20532;-92
2022/07/03 03:53:34;;;;;;;3.80;2.93;;;21.20;51.00;;;;;;5044794;27;20511;-92
2022/07/03 03:56:03;;;;;;;2.80;2.57;;;21.20;51.50;;;;;;5039117;27;20528;-92
2022/07/03 03:58:32;;;;;;;3.00;2.80;;;21.20;51.80;;;;;;5066100;27;20503;-93
2022/07/03 04:01:00;;;;;;;3.13;2.90;;;21.20;51.80;;;;;;5031594;28;20527;-92
2022/07/03 04:03:28;;;;;;;3.30;3.00;;;21.20;51.80;;;;;;5015709;27;20948;-92
2022/07/03 04:05:56;;;;;;;3.00;2.50;;;21.20;52.00;;;;;;5032992;28;20466;-92
2022/07/03 04:08:26;;;;;;;3.00;2.80;;;21.20;51.80;;;;;;5034534;28;20447;-92
2022/07/03 04:10:53;;;;;;;3.40;2.97;;;21.20;51.80;;;;;;5055108;27;20483;-92
2022/07/03 04:13:20;;;;;;;4.07;2.90;;;21.10;51.60;;;;;;5076595;27;20446;-92
2022/07/03 04:15:48;;;;;;;3.20;2.90;;;21.20;51.30;;;;;;5042834;27;20473;-92
2022/07/03 04:18:15;;;;;;;2.97;2.77;;;21.20;51.20;;;;;;5019931;27;20486;-93
2022/07/03 04:20:43;;;;;;;2.80;2.40;;;21.20;51.10;;;;;;5028616;27;20802;-92
2022/07/03 04:23:10;;;;;;;3.00;2.80;;;21.20;50.80;;;;;;5021489;28;20444;-92
2022/07/03 04:25:38;;;;;;;3.10;2.90;;;21.20;51.10;;;;;;5063583;27;20458;-92
2022/07/03 04:28:06;;;;;;;3.67;2.67;;;21.20;51.00;;;;;;5023804;28;20473;-92
2022/07/03 04:30:33;;;;;;;3.10;2.90;;;21.20;51.00;;;;;;5053853;27;20448;-92
2022/07/03 04:33:00;;;;;;;3.00;2.80;;;21.20;51.50;;;;;;5037518;28;20456;-92
2022/07/03 04:35:27;;;;;;;3.13;2.93;;;21.10;51.20;;;;;;5054561;27;21036;-92
2022/07/03 04:37:55;;;;;;;3.43;3.13;;;21.20;51.40;;;;;;5054622;27;20518;-92
2022/07/03 04:40:22;;;;;;;3.17;2.90;;;21.10;51.10;;;;;;5063614;27;20475;-92
2022/07/03 04:42:50;;;;;;;3.67;2.80;;;21.10;51.40;;;;;;5087510;28;20434;-92
2022/07/03 04:45:18;;;;;;;3.00;2.80;;;21.20;51.20;;;;;;5039916;27;20470;-92
2022/07/03 04:47:45;;;;;;;3.80;3.00;;;21.10;51.20;;;;;;5030995;27;20449;-91
2022/07/03 04:50:12;;;;;;;3.07;2.87;;;21.20;51.10;;;;;;5049385;27;20440;-92
2022/07/03 04:52:39;;;;;;;4.37;3.17;;;21.20;51.50;;;;;;5021498;27;20478;-92
2022/07/03 04:55:09;;;;;;;3.20;3.00;;;21.20;51.20;;;;;;5018427;27;20466;-91
2022/07/03 04:57:37;;;;;;;3.93;3.50;;;21.20;51.20;;;;;;5033845;28;20458;-92
2022/07/03 05:00:07;;;;;;;3.30;3.00;;;21.20;51.50;;;;;;5058742;28;20469;-92
2022/07/03 05:02:35;;;;;;;3.17;2.97;;;21.10;51.90;;;;;;5032606;28;20478;-92
2022/07/03 05:05:02;;;;;;;3.20;3.00;;;21.10;52.00;;;;;;5024654;28;20465;-90
2022/07/03 05:07:30;;;;;;;4.03;3.63;;;21.10;51.80;;;;;;5023245;27;20439;-92
2022/07/03 05:09:58;;;;;;;3.37;3.17;;;21.20;52.10;;;;;;5018653;28;20451;-92
2022/07/03 05:12:25;;;;;;;3.63;3.33;;;21.20;52.40;;;;;;5011340;28;20498;-91
2022/07/03 05:14:52;;;;;;;3.50;3.20;;;21.20;52.40;;;;;;5032834;28;20512;-92
2022/07/03 05:17:21;;;;;;;4.00;3.30;;;21.30;52.60;;;;;;5069969;27;20457;-93
2022/07/03 05:20:23;;;;;;;6.73;3.30;;;21.30;52.40;;;;;;5049257;27;20857;-92
2022/07/03 05:22:35;;;;;;;3.30;3.10;;;21.30;52.10;;;;;;5066119;27;20456;-93
2022/07/03 05:25:02;;;;;;;3.47;3.17;;;21.40;52.40;;;;;;4999446;28;20471;-91
2022/07/03 05:27:29;;;;;;;5.50;3.23;;;21.40;52.20;;;;;;5017720;28;20530;-92
2022/07/03 05:29:56;;;;;;;7.77;3.90;;;21.30;52.00;;;;;;5034195;27;20446;-92
2022/07/03 05:32:25;;;;;;;3.63;3.27;;;21.40;52.00;;;;;;5053911;27;20450;-92
2022/07/03 05:34:52;;;;;;;3.30;3.10;;;21.40;51.90;;;;;;5046632;27;20474;-92
2022/07/03 05:37:19;;;;;;;3.97;3.57;;;21.50;52.30;;;;;;5015906;28;20454;-92
2022/07/03 05:39:46;;;;;;;3.60;3.30;;;21.60;52.50;;;;;;5031783;27;20972;-92
2022/07/03 05:42:13;;;;;;;3.40;3.10;;;21.60;52.40;;;;;;5034592;28;20462;-91
2022/07/03 05:44:40;;;;;;;2.97;2.70;;;21.70;52.00;;;;;;5030319;28;20974;-91
2022/07/03 05:47:07;;;;;;;3.23;3.00;;;21.60;52.20;;;;;;5005975;28;20435;-92
2022/07/03 05:49:36;;;;;;;3.63;3.10;;;21.60;52.00;;;;;;5013855;28;20478;-91
2022/07/03 05:52:03;;;;;;;6.60;3.13;;;21.60;52.40;;;;;;4998780;28;20468;-91
2022/07/03 05:54:30;;;;;;;5.87;3.30;;;21.60;52.80;;;;;;5056560;27;20478;-93
2022/07/03 05:56:57;;;;;;;5.03;3.43;;;21.70;53.20;;;;;;5002873;28;20450;-91
2022/07/03 05:59:24;;;;;;;6.97;3.70;;;21.80;53.30;;;;;;5095404;28;20953;-93
2022/07/03 06:01:51;;;;;;;4.20;3.13;;;21.90;52.90;;;;;;4999995;28;20556;-92
2022/07/03 06:04:18;;;;;;;3.63;3.20;;;22.00;52.60;;;;;;4997877;27;20961;-92
2022/07/03 06:06:46;;;;;;;6.50;3.17;;;22.20;52.10;;;;;;5020967;28;20451;-92
2022/07/03 06:09:13;;;;;;;3.13;2.60;;;22.30;51.90;;;;;;5013624;28;20458;-92
2022/07/03 06:11:40;;;;;;;3.17;2.83;;;22.30;51.40;;;;;;5097359;27;20464;-93
2022/07/03 06:14:07;;;;;;;4.83;3.07;;;22.30;51.70;;;;;;4994751;28;20462;-91
2022/07/03 06:16:34;;;;;;;3.90;3.50;;;22.30;52.60;;;;;;5020139;27;20537;-92
2022/07/03 06:19:01;;;;;;;3.30;3.00;;;22.30;52.20;;;;;;5012280;28;20443;-92
2022/07/03 06:21:28;;;;;;;3.70;3.03;;;22.30;51.90;;;;;;5006638;28;20497;-91
2022/07/03 06:23:56;;;;;;;2.77;2.57;;;22.30;52.00;;;;;;5013455;28;20450;-91
2022/07/03 06:26:23;;;;;;;4.10;3.17;;;22.50;51.80;;;;;;5032294;27;20453;-92
2022/07/03 06:28:50;;;;;;;3.23;2.93;;;22.80;51.30;;;;;;5005654;28;20482;-90
2022/07/03 06:31:17;;;;;;;3.30;3.10;;;23.10;51.70;;;;;;4995254;28;20496;-92
2022/07/03 06:33:44;;;;;;;2.80;2.57;;;23.00;50.60;;;;;;5010916;28;20487;-92
2022/07/03 06:36:11;;;;;;;2.97;2.67;;;22.90;51.00;;;;;;5009935;28;20545;-90
2022/07/03 06:38:38;;;;;;;5.43;3.53;;;22.90;50.20;;;;;;5019634;28;20446;-91
2022/07/03 06:41:07;;;;;;;5.63;3.13;;;23.00;50.30;;;;;;4989997;28;20475;-91
2022/07/03 06:43:34;;;;;;;2.93;2.73;;;23.20;50.40;;;;;;5104935;27;20466;-91
2022/07/03 06:46:01;;;;;;;2.90;2.70;;;23.30;50.00;;;;;;5011173;28;20466;-91
2022/07/03 06:48:28;;;;;;;3.07;2.87;;;23.50;49.10;;;;;;5028644;28;20460;-91
2022/07/03 06:50:55;;;;;;;2.70;2.50;;;23.40;49.40;;;;;;4990022;28;20837;-90
2022/07/03 06:53:22;;;;;;;3.00;2.70;;;23.50;49.40;;;;;;5001415;28;20455;-90
2022/07/03 06:55:49;;;;;;;2.50;2.30;;;23.50;49.30;;;;;;4987710;28;20481;-90
2022/07/03 06:58:17;;;;;;;2.67;2.40;;;23.70;49.00;;;;;;5019303;28;20782;-90
2022/07/03 07:00:44;;;;;;;4.23;2.60;;;23.80;48.90;;;;;;5018528;28;21127;-91
2022/07/03 07:03:11;;;;;;;2.80;2.60;;;23.90;48.60;;;;;;4993067;28;20439;-90
2022/07/03 07:05:38;;;;;;;5.03;2.63;;;24.10;48.40;;;;;;4987489;28;20477;-90
2022/07/03 07:08:05;;;;;;;3.50;2.83;;;24.40;47.90;;;;;;5016273;27;20453;-89
2022/07/03 07:10:32;;;;;;;2.50;2.40;;;24.70;47.70;;;;;;5017901;28;20458;-90
2022/07/03 07:12:59;;;;;;;2.77;2.47;;;24.80;47.20;;;;;;5029223;28;20470;-89
2022/07/03 07:15:28;;;;;;;5.13;2.13;;;25.00;47.40;;;;;;5023371;28;20466;-89
2022/07/03 07:17:55;;;;;;;2.73;2.53;;;25.10;46.80;;;;;;5026275;28;20461;-89
2022/07/03 07:20:22;;;;;;;3.60;3.30;;;25.40;47.00;;;;;;5032551;27;20454;-90
2022/07/03 07:22:49;;;;;;;2.90;2.40;;;25.70;45.90;;;;;;5028720;28;20451;-91
2022/07/03 07:25:16;;;;;;;4.47;2.43;;;25.70;45.80;;;;;;5026940;28;20476;-89
2022/07/03 07:27:43;;;;;;;2.50;2.30;;;26.00;45.80;;;;;;5022087;28;20461;-91
2022/07/03 07:30:11;;;;;;;2.97;2.20;;;26.00;44.90;;;;;;5023890;28;20442;-92
2022/07/03 07:32:39;;;;;;;3.40;2.40;;;25.90;44.40;;;;;;5001139;28;20501;-91
2022/07/03 07:35:07;;;;;;;2.57;1.97;;;25.90;44.80;;;;;;4975617;28;21069;-90
2022/07/03 07:37:34;;;;;;;3.00;2.20;;;26.00;45.00;;;;;;5003790;28;20938;-91
2022/07/03 07:40:01;;;;;;;2.70;2.50;;;26.10;45.20;;;;;;5031071;28;20453;-92
2022/07/03 07:42:28;;;;;;;2.83;2.43;;;26.40;45.00;;;;;;4993002;28;20473;-91
2022/07/03 07:44:55;;;;;;;2.50;2.40;;;26.70;44.20;;;;;;4991162;28;20471;-90
2022/07/03 07:47:22;;;;;;;2.33;2.13;;;26.50;44.10;;;;;;5003407;28;20495;-91
2022/07/03 07:49:50;;;;;;;3.90;2.33;;;26.60;44.10;;;;;;5019338;28;20843;-91
2022/07/03 07:52:17;;;;;;;5.73;2.60;;;26.60;43.60;;;;;;5014417;28;20462;-91
2022/07/03 07:54:44;;;;;;;3.80;2.20;;;26.80;43.90;;;;;;5000221;28;20482;-91
2022/07/03 07:57:11;;;;;;;4.80;2.43;;;27.00;43.70;;;;;;5000444;28;20945;-91
2022/07/03 07:59:38;;;;;;;3.10;2.30;;;27.00;43.40;;;;;;5003871;28;20449;-91
2022/07/03 08:07:35;;;;;;;2.30;1.90;;;27.60;41.70;;;;;;4996051;28;20480;-91
2022/07/03 08:10:02;;;;;;;3.87;2.20;;;27.70;41.60;;;;;;5005500;28;20447;-89
2022/07/03 08:12:29;;;;;;;2.90;2.30;;;27.90;41.70;;;;;;5013150;28;20457;-91
2022/07/03 08:14:56;;;;;;;2.10;2.00;;;28.20;41.70;;;;;;5040756;28;20471;-92
2022/07/03 08:17:23;;;;;;;2.00;1.90;;;28.40;41.40;;;;;;5020473;28;20462;-91
2022/07/03 08:19:51;;;;;;;2.37;2.27;;;28.50;40.90;;;;;;5015366;27;20454;-95
2022/07/03 08:22:18;;;;;;;2.97;2.17;;;28.60;40.90;;;;;;5019437;27;20482;-92
2022/07/03 08:24:46;;;;;;;2.40;2.20;;;28.80;40.20;;;;;;5011393;28;20474;-92
2022/07/03 08:27:13;;;;;;;2.00;1.90;;;28.90;40.00;;;;;;5008394;27;20461;-92
2022/07/03 08:29:40;;;;;;;2.93;2.50;;;28.90;39.80;;;;;;5010857;28;20470;-91
2022/07/03 08:32:08;;;;;;;3.83;1.93;;;29.10;39.50;;;;;;5010667;28;20499;-93
2022/07/03 08:34:35;;;;;;;2.03;1.93;;;29.10;39.10;;;;;;5013924;28;21012;-92
2022/07/03 08:37:04;;;;;;;1.83;1.70;;;29.40;39.00;;;;;;5019857;27;20450;-90
2022/07/03 08:39:31;;;;;;;2.37;2.17;;;29.40;38.10;;;;;;5009517;28;20446;-92
2022/07/03 08:41:59;;;;;;;2.30;2.10;;;29.40;38.80;;;;;;5024560;28;20466;-89
2022/07/03 08:44:27;;;;;;;2.10;2.00;;;29.50;38.40;;;;;;5023778;27;20477;-89
2022/07/03 08:46:57;;;;;;;3.43;2.00;;;29.70;38.10;;;;;;5022332;28;20450;-90
2022/07/03 08:49:24;;;;;;;1.97;1.77;;;29.90;37.60;;;;;;5026046;27;20919;-91
2022/07/03 08:51:54;;;;;;;1.80;1.70;;;30.00;37.70;;;;;;5028069;27;20449;-90
2022/07/03 08:54:22;;;;;;;3.53;1.80;;;30.20;37.20;;;;;;5023679;28;20475;-90
2022/07/03 08:56:50;;;;;;;2.00;1.90;;;30.60;37.00;;;;;;5026390;27;20441;-91
2022/07/03 08:59:19;;;;;;;1.80;1.70;;;30.70;35.50;;;;;;5023563;28;20451;-90
2022/07/03 09:01:47;;;;;;;2.03;1.93;;;30.70;35.30;;;;;;5023897;28;20467;-91
2022/07/03 09:04:14;;;;;;;1.80;1.70;;;31.00;36.40;;;;;;5012711;28;20468;-91
2022/07/03 09:06:42;;;;;;;1.70;1.60;;;31.20;35.10;;;;;;5029640;27;20442;-90
2022/07/03 09:09:10;;;;;;;1.73;1.60;;;31.10;34.30;;;;;;5022008;28;20460;-90
2022/07/03 09:11:39;;;;;;;1.73;1.63;;;31.10;34.50;;;;;;5018608;28;20461;-89
2022/07/03 09:14:07;;;;;;;1.80;1.70;;;31.20;34.20;;;;;;5020677;28;21143;-89
2022/07/03 09:16:36;;;;;;;1.63;1.50;;;31.40;34.60;;;;;;5007828;28;20826;-89
2022/07/03 09:19:04;;;;;;;1.80;1.70;;;31.70;34.70;;;;;;5022361;27;21058;-90
2022/07/03 09:21:38;;;;;;;3.03;1.93;;;31.70;31.90;;;;;;5005517;28;20467;-90
2022/07/03 09:24:07;;;;;;;1.67;1.50;;;32.00;33.50;;;;;;5015162;28;20605;-91
2022/07/03 09:26:35;;;;;;;1.80;1.70;;;32.00;31.00;;;;;;4995076;28;20504;-90
2022/07/03 09:29:03;;;;;;;1.97;1.80;;;32.30;31.00;;;;;;5012015;28;20453;-89
2022/07/03 09:31:31;;;;;;;2.20;1.50;;;32.30;30.00;;;;;;5014508;28;20545;-92
2022/07/03 09:33:59;;;;;;;1.63;1.53;;;32.60;31.00;;;;;;5022745;27;20443;-90
2022/07/03 09:36:41;;;;;;;1.77;1.67;;;33.00;31.40;;;;;;5005526;28;20449;-90
2022/07/03 09:39:17;;;;;;;2.40;1.80;;;33.00;29.70;;;;;;5029374;27;20465;-92
2022/07/03 09:41:54;;;;;;;2.03;1.50;;;33.10;30.50;;;;;;5017017;28;20472;-90
2022/07/03 09:44:34;;;;;;;2.00;1.60;;;33.10;30.00;;;;;;5019829;28;22026;-91
2022/07/03 09:47:13;;;;;;;1.50;1.40;;;33.20;30.10;;;;;;5011267;28;20904;-89
2022/07/03 09:49:47;;;;;;;5.70;1.47;;;33.40;30.00;;;;;;5020981;27;20453;-90
2022/07/03 09:52:36;;;;;;;2.03;1.33;;;33.20;27.20;;;;;;5015320;27;20436;-92
2022/07/03 09:55:15;;;;;;;2.70;1.80;;;33.00;27.30;;;;;;5025858;27;20993;-92
2022/07/03 09:57:44;;;;;;;2.60;1.33;;;33.00;27.50;;;;;;4994754;28;20442;-89
2022/07/03 10:00:18;;;;;;;1.73;1.20;;;33.30;26.60;;;;;;5028814;27;20470;-90
2022/07/03 10:02:59;;;;;;;1.30;1.20;;;33.60;26.80;;;;;;5004136;28;21878;-91
2022/07/03 10:05:28;;;;;;;1.50;1.40;;;33.60;28.50;;;;;;5008012;28;20470;-91
2022/07/03 10:07:57;;;;;;;2.30;1.13;;;33.80;27.90;;;;;;5024412;27;20458;-89
2022/07/03 10:10:26;;;;;;;1.30;1.20;;;34.00;26.70;;;;;;5009904;28;20488;-89
2022/07/03 10:12:55;;;;;;;1.43;1.33;;;34.00;26.40;;;;;;5027334;27;20458;-92
2022/07/03 10:15:24;;;;;;;1.40;1.30;;;34.00;26.70;;;;;;5029274;27;20542;-91
2022/07/03 10:17:53;;;;;;;2.00;1.50;;;34.00;26.10;;;;;;4986764;28;20466;-91
2022/07/03 10:20:25;;;;;;;1.53;1.43;;;34.20;25.90;;;;;;5022155;27;20441;-91
2022/07/03 10:22:52;;;;;;;1.77;1.13;;;34.50;26.90;;;;;;5018826;28;20465;-92
2022/07/03 10:25:20;;;;;;;1.83;1.03;;;34.80;25.90;;;;;;5020257;27;20463;-92
2022/07/03 10:27:47;;;;;;;2.37;1.30;;;34.80;24.80;;;;;;4999160;27;20451;-90
2022/07/03 10:30:16;;;;;;;1.53;1.13;;;34.90;24.80;;;;;;5016920;27;20515;-88
2022/07/03 10:32:45;;;;;;;1.17;1.00;;;35.00;23.60;;;;;;5020438;28;20455;-90
2022/07/03 10:35:15;;;;;;;1.67;1.37;;;34.80;23.20;;;;;;5021619;28;21270;-88
2022/07/03 10:37:53;;;;;;;2.00;1.10;;;34.60;23.80;;;;;;5030591;27;20449;-89
2022/07/03 10:46:17;;;;;;;1.20;1.03;;;34.60;25.20;;;;;;5029118;27;20474;-91
2022/07/03 10:49:03;;;;;;;1.73;1.30;;;34.40;24.10;;;;;;5027721;27;20454;-90
2022/07/03 10:51:51;;;;;;;1.30;1.20;;;34.40;24.20;;;;;;5005726;28;20443;-90
2022/07/03 10:54:20;;;;;;;1.20;1.10;;;34.50;23.80;;;;;;5024289;27;20470;-91
2022/07/03 10:57:10;;;;;;;1.30;1.10;;;34.50;23.70;;;;;;5028849;28;20814;-88
2022/07/03 11:00:17;;;;;;;1.57;1.20;;;34.50;24.00;;;;;;5021912;28;20446;-89
2022/07/03 11:02:46;;;;;;;1.10;1.00;;;34.70;24.70;;;;;;5011529;28;20969;-90
2022/07/03 11:05:23;;;;;;;2.40;1.10;;;34.60;23.50;;;;;;5021401;28;20497;-91
2022/07/03 11:08:12;;;;;;;1.23;0.90;;;35.00;24.20;;;;;;5023855;27;20934;-89
2022/07/03 11:10:43;;;;;;;1.23;1.03;;;35.00;22.70;;;;;;5022968;28;20449;-90
2022/07/03 11:13:15;;;;;;;1.63;1.20;;;35.00;24.10;;;;;;5023071;28;20927;-91
2022/07/03 11:15:45;;;;;;;1.33;1.23;;;34.90;24.00;;;;;;5022917;28;20475;-90
2022/07/03 11:18:20;;;;;;;1.40;1.30;;;35.10;24.00;;;;;;5014991;28;20471;-90
2022/07/03 11:21:22;;;;;;;1.07;0.97;;;35.20;23.60;;;;;;5008557;28;20836;-90
2022/07/03 11:24:29;;;;;;;1.10;1.00;;;35.30;23.70;;;;;;5026576;28;21148;-90
2022/07/03 11:27:34;;;;;;;1.97;1.37;;;35.00;23.70;;;;;;5020493;28;20540;-90
2022/07/03 11:30:01;;;;;;;1.13;1.03;;;34.70;23.60;;;;;;5022083;28;20984;-91
2022/07/03 11:32:49;;;;;;;1.33;1.23;;;34.80;23.40;;;;;;5025100;28;20461;-89
2022/07/03 11:35:46;;;;;;;1.17;1.07;;;35.10;23.30;;;;;;4989322;28;20479;-92
2022/07/03 11:38:18;;;;;;;1.20;1.10;;;35.40;22.60;;;;;;5021700;28;20451;-89
2022/07/03 11:40:48;;;;;;;3.77;1.20;;;35.30;22.60;;;;;;5017932;28;21178;-89
2022/07/03 11:43:15;;;;;;;1.10;1.00;;;35.40;22.90;;;;;;5011698;28;20459;-90
2022/07/03 11:45:42;;;;;;;1.10;1.00;;;35.00;21.70;;;;;;5018595;28;20458;-90
2022/07/03 11:48:13;;;;;;;1.20;1.10;;;35.10;22.80;;;;;;5012640;28;20459;-89
2022/07/03 11:50:41;;;;;;;1.43;1.20;;;35.20;23.70;;;;;;5019507;28;20536;-92
2022/07/03 11:53:31;;;;;;;1.47;1.37;;;35.20;24.30;;;;;;5002181;28;20441;-89
2022/07/03 11:56:00;;;;;;;1.70;1.50;;;35.20;23.80;;;;;;5019574;27;20489;-90
2022/07/03 11:58:41;;;;;;;1.10;1.00;;;35.20;23.30;;;;;;5022453;27;20453;-89
2022/07/03 12:01:09;;;;;;;2.07;1.27;;;35.30;23.00;;;;;;5024279;27;20458;-89
2022/07/03 12:03:36;;;;;;;1.50;1.40;;;35.30;24.60;;;;;;5020300;28;20496;-89
2022/07/03 12:06:03;;;;;;;1.20;1.10;;;35.60;25.10;;;;;;5022300;27;20965;-88
2022/07/03 12:08:32;;;;;;;1.70;1.60;;;35.70;22.40;;;;;;5022249;27;20461;-90
2022/07/03 12:11:02;;;;;;;2.60;1.23;;;35.30;23.00;;;;;;5023184;28;20454;-90
2022/07/03 12:13:30;;;;;;;1.20;1.10;;;35.30;23.60;;;;;;5026651;27;21188;-90
2022/07/03 12:16:09;;;;;;;1.20;1.07;;;35.60;23.80;;;;;;5025089;28;20470;-90
2022/07/03 12:18:43;;;;;;;1.50;1.40;;;36.00;22.30;;;;;;5026368;28;20443;-87
2022/07/03 12:21:10;;;;;;;2.80;1.40;;;35.70;21.80;;;;;;5022237;28;20453;-89
2022/07/03 12:23:47;;;;;;;1.20;1.10;;;35.50;22.40;;;;;;5004230;28;20901;-89
2022/07/03 12:26:15;;;;;;;1.20;1.10;;;35.60;22.70;;;;;;5007276;28;20995;-89
2022/07/03 12:28:42;;;;;;;2.77;1.43;;;35.50;23.80;;;;;;5024187;28;20461;-90
2022/07/03 12:31:09;;;;;;;2.07;1.20;;;35.50;22.90;;;;;;5020391;28;20446;-90
2022/07/03 12:33:36;;;;;;;1.30;1.20;;;35.60;23.10;;;;;;5009678;28;20458;-89
2022/07/03 12:36:08;;;;;;;1.70;1.20;;;35.70;23.40;;;;;;5023349;27;20474;-90
2022/07/03 12:38:37;;;;;;;2.17;1.20;;;35.90;23.10;;;;;;5005704;28;20443;-89
2022/07/03 12:41:07;;;;;;;1.40;1.30;;;36.10;23.40;;;;;;5025947;27;20456;-90
2022/07/03 12:43:38;;;;;;;1.40;1.30;;;36.00;22.70;;;;;;5023628;28;20466;-90
2022/07/03 12:46:16;;;;;;;1.87;1.30;;;36.20;22.90;;;;;;5022993;27;20477;-90
2022/07/03 12:48:46;;;;;;;1.20;1.10;;;35.90;22.70;;;;;;5026489;27;20474;-90
2022/07/03 12:51:13;;;;;;;1.40;1.30;;;36.00;23.20;;;;;;5020271;28;20473;-89
2022/07/03 12:53:41;;;;;;;1.50;1.30;;;35.80;22.90;;;;;;5023778;27;20932;-89
2022/07/03 12:56:11;;;;;;;1.40;1.30;;;35.70;23.20;;;;;;5025260;28;20955;-90
2022/07/03 13:01:26;;;;;;;2.23;1.30;;;36.00;21.30;;;;;;5013094;27;20492;-91
2022/07/03 13:03:53;;;;;;;1.37;1.27;;;35.30;23.30;;;;;;5025451;27;20481;-89
2022/07/03 13:06:22;;;;;;;1.63;1.07;;;35.60;23.50;;;;;;5017391;27;20531;-90
2022/07/03 13:08:54;;;;;;;3.07;1.20;;;35.90;22.80;;;;;;5018547;27;20866;-88
2022/07/03 13:11:31;;;;;;;1.43;1.27;;;36.00;23.80;;;;;;5019643;27;21119;-89
2022/07/03 13:14:06;;;;;;;1.73;1.00;;;36.20;22.40;;;;;;5019292;27;20482;-89
2022/07/03 13:16:38;;;;;;;1.53;1.43;;;36.40;22.60;;;;;;5020202;27;20454;-90
2022/07/03 13:19:06;;;;;;;1.40;1.30;;;36.60;22.70;;;;;;4990715;27;20486;-90